Aegean Tiffany — SVAE9 — position and weather

sailwx.info

Track history (hours):
 
Tides and Currents Weather Stations Pressure Air Temp Water Temp Dewpoint Dewpoint Depression Visibility Wind Speed Wind Dir Waves Ship Positions

Aegean Tiffany

Last reported at 2015-May-26 08:30 UTC. Time now 2015-May-28 01:48 UTC.
Position N 38°02' E 023°32'.

Length 80 m; draft 4.5 m.

Type: Tanker. MMSI: 240870000.

Date/timePositionNaut miles runAvg speedWind from/ knotsBaromVisibWave heightAir tempDewpointWater temp
2015-May-26 08:30N 38°02' E 023°32'4 4.2
2015-May-26 07:29N 38°00' E 023°27'6 6.3
2015-May-26 06:33N 37°57' E 023°21'8 8.1
2015-May-26 05:32N 37°55' E 023°11'  
2015-May-21 22:12N 37°54' E 023°05'6 7.9
2015-May-21 21:29N 37°55' E 023°12'7 7.9
2015-May-21 20:33N 37°57' E 023°21'7 6.3
2015-May-21 19:24N 38°01' E 023°29'3 3.4
2015-May-21 18:33N 38°02' E 023°32'1 0.7
2015-May-21 17:33N 38°02' E 023°31'0 0.5
2015-May-21 16:33N 38°02' E 023°31'0 0.0
2015-May-21 10:33N 38°02' E 023°31'0 0.0
2015-May-21 09:33N 38°02' E 023°31'0 0.0
2015-May-21 08:33N 38°02' E 023°31'0 0.0
2015-May-21 07:33N 38°02' E 023°31'0 0.0
2015-May-21 06:33N 38°02' E 023°31'0 0.0
2015-May-21 05:33N 38°02' E 023°31'0 0.0
2015-May-21 04:33N 38°02' E 023°31'0 0.0
2015-May-21 03:33N 38°02' E 023°31'0 0.0
2015-May-21 02:33N 38°02' E 023°31'0 0.0
2015-May-21 01:33N 38°02' E 023°31'0 0.0
2015-May-21 00:33N 38°02' E 023°31'0 0.0
2015-May-20 23:33N 38°02' E 023°31'0 0.0
2015-May-20 22:33N 38°02' E 023°31'0 0.0
2015-May-20 21:33N 38°02' E 023°31'0 0.1
2015-May-20 20:33N 38°02' E 023°31'1 0.0
2015-May-19 12:33N 38°02' E 023°32'0 0.0
2015-May-19 11:32N 38°02' E 023°32'0 0.0
2015-May-19 10:32N 38°02' E 023°32'2 1.8
2015-May-19 09:33N 38°01' E 023°33'4 3.8
2015-May-19 08:33N 37°57' E 023°34'0 0.0
2015-May-19 07:33N 37°57' E 023°34'1 1.4
2015-May-19 06:33N 37°58' E 023°33'4 4.2
2015-May-19 05:32N 38°02' E 023°32'1 0.6
2015-May-19 04:32N 38°02' E 023°31'5 5.4
2015-May-19 03:33N 37°59' E 023°25'6 5.5
2015-May-19 02:33N 37°57' E 023°19'7 7.4
2015-May-19 01:33N 37°55' E 023°10'  
Track history (hours):
 
Tides and Currents Weather Stations Pressure Air Temp Water Temp Dewpoint Dewpoint Depression Visibility Wind Speed Wind Dir Waves Ship Positions

Aegean Tiffany

Last reported at 2015-May-26 08:30 UTC. Time now 2015-May-28 01:48 UTC.
Position N 38°02' E 023°32'.

Length 80 m; draft 4.5 m.

Type: Tanker. MMSI: 240870000.

Date/timePositionNaut miles runAvg speedWind from/ knotsBaromVisibWave heightAir tempDewpointWater temp
2015-May-26 08:30N 38°02' E 023°32'4 4.2
2015-May-26 07:29N 38°00' E 023°27'6 6.3
2015-May-26 06:33N 37°57' E 023°21'8 8.1
2015-May-26 05:32N 37°55' E 023°11'  
2015-May-21 22:12N 37°54' E 023°05'6 7.9
2015-May-21 21:29N 37°55' E 023°12'7 7.9
2015-May-21 20:33N 37°57' E 023°21'7 6.3
2015-May-21 19:24N 38°01' E 023°29'3 3.4
2015-May-21 18:33N 38°02' E 023°32'1 0.7
2015-May-21 17:33N 38°02' E 023°31'0 0.5
2015-May-21 16:33N 38°02' E 023°31'0 0.0
2015-May-21 10:33N 38°02' E 023°31'0 0.0
2015-May-21 09:33N 38°02' E 023°31'0 0.0
2015-May-21 08:33N 38°02' E 023°31'0 0.0
2015-May-21 07:33N 38°02' E 023°31'0 0.0
2015-May-21 06:33N 38°02' E 023°31'0 0.0
2015-May-21 05:33N 38°02' E 023°31'0 0.0
2015-May-21 04:33N 38°02' E 023°31'0 0.0
2015-May-21 03:33N 38°02' E 023°31'0 0.0
2015-May-21 02:33N 38°02' E 023°31'0 0.0
2015-May-21 01:33N 38°02' E 023°31'0 0.0
2015-May-21 00:33N 38°02' E 023°31'0 0.0
2015-May-20 23:33N 38°02' E 023°31'0 0.0
2015-May-20 22:33N 38°02' E 023°31'0 0.0
2015-May-20 21:33N 38°02' E 023°31'0 0.1
2015-May-20 20:33N 38°02' E 023°31'1 0.0
2015-May-19 12:33N 38°02' E 023°32'0 0.0
2015-May-19 11:32N 38°02' E 023°32'0 0.0
2015-May-19 10:32N 38°02' E 023°32'2 1.8
2015-May-19 09:33N 38°01' E 023°33'4 3.8
2015-May-19 08:33N 37°57' E 023°34'0 0.0
2015-May-19 07:33N 37°57' E 023°34'1 1.4
2015-May-19 06:33N 37°58' E 023°33'4 4.2
2015-May-19 05:32N 38°02' E 023°32'1 0.6
2015-May-19 04:32N 38°02' E 023°31'5 5.4
2015-May-19 03:33N 37°59' E 023°25'6 5.5
2015-May-19 02:33N 37°57' E 023°19'7 7.4
2015-May-19 01:33N 37°55' E 023°10'  

Dump ship's entire track history